createdAt,value
2018-12-26T00:00:49.459Z,16.0
2018-12-26T00:02:49.506Z,16.4
2018-12-26T00:04:50.107Z,16.4
2018-12-26T00:06:50.246Z,15.6
2018-12-26T00:08:50.214Z,16.1
2018-12-26T00:10:50.213Z,16.8
2018-12-26T00:12:50.193Z,17.5
2018-12-26T00:14:50.138Z,17.5
2018-12-26T00:16:49.446Z,17.6
2018-12-26T00:18:50.269Z,17.6
2018-12-26T00:20:50.101Z,19.1
2018-12-26T00:22:49.943Z,19.1
2018-12-26T00:24:49.733Z,17.9
2018-12-26T00:26:49.819Z,17.7
2018-12-26T00:28:49.620Z,17.1
2018-12-26T00:30:50.475Z,17.9
2018-12-26T00:32:50.266Z,17.9
2018-12-26T00:34:49.511Z,18.2
2018-12-26T00:36:49.603Z,17.9
2018-12-26T00:38:50.406Z,17.9
2018-12-26T00:40:50.223Z,19.1
2018-12-26T00:42:50.054Z,20.0
2018-12-26T00:44:49.876Z,19.0
2018-12-26T00:46:49.894Z,18.8
2018-12-26T00:48:49.680Z,20.0
2018-12-26T00:50:49.533Z,20.4
2018-12-26T00:52:50.292Z,20.5
2018-12-26T00:54:50.144Z,20.5
2018-12-26T00:56:50.190Z,20.7
2018-12-26T00:58:49.985Z,21.3
2018-12-26T01:00:49.751Z,20.1
2018-12-26T01:02:49.589Z,19.9
2018-12-26T01:04:49.753Z,19.9
2018-12-26T01:06:49.686Z,18.2
2018-12-26T01:08:49.533Z,17.3
2018-12-26T01:10:49.438Z,18.1
2018-12-26T01:12:50.259Z,18.1
2018-12-26T01:14:50.036Z,17.5
2018-12-26T01:16:50.040Z,15.8
2018-12-26T01:18:49.848Z,15.8
2018-12-26T01:20:49.721Z,17.3
2018-12-26T01:22:49.570Z,17.3
2018-12-26T01:24:50.438Z,16.2
2018-12-26T01:26:49.470Z,17.6
2018-12-26T01:28:50.270Z,17.1
2018-12-26T01:30:50.122Z,16.0
2018-12-26T01:32:49.989Z,16.0
2018-12-26T01:34:50.149Z,16.1
2018-12-26T01:36:50.166Z,16.4
2018-12-26T01:38:50.027Z,17.8
2018-12-26T01:40:49.821Z,17.8
2018-12-26T01:42:49.667Z,18.1
2018-12-26T01:44:49.540Z,17.0
2018-12-26T01:46:49.600Z,17.4
2018-12-26T01:48:50.418Z,17.4
2018-12-26T01:50:50.139Z,18.0
2018-12-26T01:52:49.965Z,18.0
2018-12-26T01:54:49.790Z,16.9
2018-12-26T01:56:50.006Z,17.0
2018-12-26T01:58:49.795Z,17.4
2018-12-26T02:00:49.634Z,17.4
2018-12-26T02:02:49.524Z,18.2
2018-12-26T02:04:49.618Z,17.0
2018-12-26T02:06:49.634Z,17.0
2018-12-26T02:08:50.418Z,17.2
2018-12-26T02:10:50.233Z,18.5
2018-12-26T02:12:50.095Z,18.6
2018-12-26T02:14:49.926Z,19.9
2018-12-26T02:16:50.017Z,18.4
2018-12-26T02:18:49.914Z,18.4
2018-12-26T02:20:49.807Z,20.1
2018-12-26T02:22:49.918Z,18.7
2018-12-26T02:24:49.913Z,20.3
2018-12-26T02:26:50.045Z,20.3
2018-12-26T02:28:49.920Z,19.8
2018-12-26T02:30:49.960Z,20.5
2018-12-26T02:32:49.785Z,19.4
2018-12-26T02:34:50.012Z,20.9
2018-12-26T02:36:50.016Z,20.9
2018-12-26T02:38:49.799Z,19.6
2018-12-26T02:40:49.614Z,20.3
2018-12-26T02:42:49.465Z,19.4
2018-12-26T02:44:50.307Z,19.4
2018-12-26T02:46:50.321Z,18.9
2018-12-26T02:48:50.119Z,18.9
2018-12-26T02:50:50.015Z,18.4
2018-12-26T02:52:49.921Z,19.5
2018-12-26T02:54:49.767Z,19.5
2018-12-26T02:56:49.900Z,21.8
2018-12-26T02:58:49.738Z,21.8
2018-12-26T03:00:49.655Z,19.0
2018-12-26T03:02:49.498Z,18.7
2018-12-26T03:04:49.622Z,18.7
2018-12-26T03:06:49.739Z,19.2
2018-12-26T03:08:50.057Z,19.2
2018-12-26T03:10:49.860Z,19.2
2018-12-26T03:12:49.666Z,19.1
2018-12-26T03:14:49.538Z,19.1
2018-12-26T03:16:49.488Z,20.1
2018-12-26T03:18:50.306Z,20.1
2018-12-26T03:20:50.124Z,20.5
2018-12-26T03:22:49.943Z,19.2
2018-12-26T03:24:49.709Z,20.2
2018-12-26T03:26:55.932Z,20.2
2018-12-26T03:28:49.469Z,19.6
2018-12-26T03:30:50.288Z,19.9
2018-12-26T03:32:50.060Z,20.6
2018-12-26T03:34:50.254Z,22.2
2018-12-26T03:36:50.233Z,22.2
2018-12-26T03:38:50.066Z,20.7
2018-12-26T03:40:49.914Z,21.4
2018-12-26T03:42:49.711Z,21.4
2018-12-26T03:44:49.582Z,23.1
2018-12-26T03:46:49.687Z,23.1
2018-12-26T03:48:49.719Z,24.8
2018-12-26T03:50:49.555Z,24.5
2018-12-26T03:52:50.365Z,26.9
2018-12-26T03:54:50.262Z,26.9
2018-12-26T03:56:50.368Z,25.6
2018-12-26T03:58:50.216Z,28.5
2018-12-26T04:00:50.005Z,27.7
2018-12-26T04:02:49.834Z,27.7
2018-12-26T04:04:49.917Z,29.1
2018-12-26T04:06:50.014Z,29.1
2018-12-26T04:08:49.839Z,30.6
2018-12-26T04:10:49.614Z,31.4
2018-12-26T04:12:49.494Z,32.7
2018-12-26T04:14:50.201Z,32.7
2018-12-26T04:16:50.291Z,33.4
2018-12-26T04:18:50.100Z,34.4
2018-12-26T04:20:49.876Z,34.4
2018-12-26T04:22:49.742Z,36.5
2018-12-26T04:24:49.568Z,36.5
2018-12-26T04:26:49.586Z,37.1
2018-12-26T04:28:50.370Z,37.7
2018-12-26T04:30:50.222Z,37.7
2018-12-26T04:32:50.068Z,39.1
2018-12-26T04:34:50.245Z,39.1
2018-12-26T04:36:50.229Z,36.6
2018-12-26T04:38:50.047Z,37.4
2018-12-26T04:40:49.861Z,37.4
2018-12-26T04:42:49.666Z,37.8
2018-12-26T04:44:49.456Z,36.3
2018-12-26T04:46:49.461Z,35.9
2018-12-26T04:48:50.299Z,36.5
2018-12-26T04:50:50.156Z,36.5
2018-12-26T04:52:49.959Z,38.7
2018-12-26T04:54:49.729Z,38.7
2018-12-26T04:56:49.753Z,38.6
2018-12-26T04:58:49.579Z,39.0
2018-12-26T05:00:49.458Z,39.7
2018-12-26T05:02:50.410Z,39.7
2018-12-26T05:04:49.430Z,35.6
2018-12-26T05:06:49.543Z,38.2
2018-12-26T05:08:50.318Z,38.7
2018-12-26T05:10:50.112Z,37.1
2018-12-26T05:12:49.940Z,37.1
2018-12-26T05:14:49.736Z,35.2
2018-12-26T05:16:49.800Z,37.7
2018-12-26T05:18:49.590Z,37.7
2018-12-26T05:20:49.458Z,41.0
2018-12-26T05:22:50.370Z,38.7
2018-12-26T05:24:50.180Z,42.3
2018-12-26T05:26:49.698Z,38.0
2018-12-26T05:28:49.564Z,38.4
2018-12-26T05:30:49.497Z,39.8
2018-12-26T05:32:50.239Z,39.8
2018-12-26T05:34:50.402Z,39.9
2018-12-26T05:36:49.579Z,38.9
2018-12-26T05:38:50.331Z,38.2
2018-12-26T05:40:50.154Z,39.1
2018-12-26T05:42:49.920Z,39.1
2018-12-26T05:44:49.764Z,38.7
2018-12-26T05:46:49.712Z,38.8
2018-12-26T05:48:49.475Z,40.7
2018-12-26T05:50:50.346Z,40.7
2018-12-26T05:52:50.102Z,38.5
2018-12-26T05:54:49.926Z,38.5
2018-12-26T05:56:49.927Z,35.2
2018-12-26T05:58:49.740Z,35.2
2018-12-26T06:00:49.581Z,35.3
2018-12-26T06:02:50.424Z,36.3
2018-12-26T06:04:49.651Z,35.3
2018-12-26T06:06:49.575Z,35.3
2018-12-26T06:08:49.467Z,37.3
2018-12-26T06:10:50.263Z,34.9
2018-12-26T06:12:50.162Z,34.9
2018-12-26T06:14:50.012Z,35.5
2018-12-26T06:16:50.078Z,35.5
2018-12-26T06:18:49.914Z,35.9
2018-12-26T06:20:49.707Z,35.9
2018-12-26T06:22:49.581Z,35.9
2018-12-26T06:24:50.407Z,36.0
2018-12-26T06:26:49.467Z,34.5
2018-12-26T06:28:50.291Z,36.7
2018-12-26T06:30:50.119Z,33.2
2018-12-26T06:32:49.874Z,33.2
2018-12-26T06:34:50.063Z,37.4
2018-12-26T06:36:49.534Z,37.4
2018-12-26T06:38:50.341Z,40.5
2018-12-26T06:40:50.096Z,37.3
2018-12-26T06:42:49.972Z,38.5
2018-12-26T06:44:49.829Z,37.6
2018-12-26T06:46:49.730Z,37.6
2018-12-26T06:48:49.594Z,35.2
2018-12-26T06:50:50.410Z,35.2
2018-12-26T06:52:50.244Z,39.1
2018-12-26T06:54:50.105Z,39.1
2018-12-26T06:56:50.195Z,39.3
2018-12-26T06:58:50.036Z,39.3
2018-12-26T07:00:49.894Z,38.5
2018-12-26T07:02:49.678Z,39.5
2018-12-26T07:04:49.904Z,39.5
2018-12-26T07:06:49.974Z,38.9
2018-12-26T07:08:49.918Z,38.9
2018-12-26T07:10:49.714Z,38.8
2018-12-26T07:12:49.643Z,38.8
2018-12-26T07:14:49.427Z,40.9
2018-12-26T07:16:49.546Z,40.5
2018-12-26T07:18:50.293Z,40.5
2018-12-26T07:20:50.178Z,39.1
2018-12-26T07:22:49.973Z,36.3
2018-12-26T07:24:49.808Z,34.9
2018-12-26T07:26:49.915Z,34.9
2018-12-26T07:28:49.699Z,36.5
2018-12-26T07:30:49.666Z,37.9
2018-12-26T07:32:49.460Z,38.4
2018-12-26T07:34:49.582Z,41.5
2018-12-26T07:36:49.543Z,41.5
2018-12-26T07:38:49.423Z,38.6
2018-12-26T07:40:50.259Z,39.4
2018-12-26T07:42:50.165Z,38.7
2018-12-26T07:44:50.073Z,38.0
2018-12-26T07:46:50.042Z,38.0
2018-12-26T07:48:49.914Z,38.8
2018-12-26T07:50:49.704Z,40.9
2018-12-26T07:52:49.552Z,40.9
2018-12-26T07:54:50.382Z,38.2
2018-12-26T07:56:49.484Z,38.2
2018-12-26T07:58:50.387Z,39.3
2018-12-26T08:00:50.127Z,40.3
2018-12-26T08:02:49.900Z,37.6
2018-12-26T08:04:49.956Z,37.6
2018-12-26T08:06:49.935Z,36.9
2018-12-26T08:08:49.687Z,35.9
2018-12-26T08:10:49.473Z,35.9
2018-12-26T08:12:50.275Z,34.1
2018-12-26T08:14:50.042Z,34.1
2018-12-26T08:16:50.109Z,32.3
2018-12-26T08:18:50.040Z,31.3
2018-12-26T08:20:49.830Z,31.6
2018-12-26T08:22:49.672Z,31.6
2018-12-26T08:24:49.447Z,31.8
2018-12-26T08:26:49.534Z,32.8
2018-12-26T08:28:50.287Z,31.9
2018-12-26T08:30:50.231Z,31.9
2018-12-26T08:32:49.999Z,29.2
2018-12-26T08:34:50.186Z,33.0
2018-12-26T08:36:50.150Z,33.1
2018-12-26T08:38:49.993Z,29.3
2018-12-26T08:40:49.904Z,29.3
2018-12-26T08:42:49.751Z,31.6
2018-12-26T08:44:49.557Z,31.6
2018-12-26T08:46:49.566Z,28.1
2018-12-26T08:48:50.370Z,29.5
2018-12-26T08:50:50.103Z,29.5
2018-12-26T08:52:50.278Z,28.2
2018-12-26T08:54:50.281Z,30.4
2018-12-26T08:56:50.208Z,26.8
2018-12-26T08:58:50.008Z,30.1
2018-12-26T09:00:49.825Z,28.2
2018-12-26T09:02:49.586Z,28.2
2018-12-26T09:04:49.838Z,27.6
2018-12-26T09:06:49.794Z,26.1
2018-12-26T09:08:49.637Z,26.4
2018-12-26T09:10:49.447Z,24.7
2018-12-26T09:12:50.316Z,24.7
2018-12-26T09:14:50.147Z,26.3
2018-12-26T09:16:50.112Z,25.8
2018-12-26T09:18:49.897Z,25.0
2018-12-26T09:20:49.692Z,25.0
2018-12-26T09:22:49.569Z,26.3
2018-12-26T09:24:50.358Z,25.5
2018-12-26T09:26:50.290Z,25.0
2018-12-26T09:28:50.109Z,25.0
2018-12-26T09:30:49.933Z,25.0
2018-12-26T09:32:49.727Z,24.6
2018-12-26T09:34:50.048Z,25.5
2018-12-26T09:36:49.947Z,25.5
2018-12-26T09:38:49.745Z,25.5
2018-12-26T09:40:49.546Z,23.1
2018-12-26T09:42:50.318Z,24.1
2018-12-26T09:44:54.277Z,27.1
2018-12-26T09:46:49.881Z,27.1
2018-12-26T09:48:49.682Z,23.4
2018-12-26T09:50:49.562Z,22.5
2018-12-26T09:52:50.342Z,22.5
2018-12-26T09:54:50.110Z,21.6
2018-12-26T09:56:50.123Z,21.6
2018-12-26T09:58:52.539Z,22.9
2018-12-26T10:00:49.663Z,22.9
2018-12-26T10:02:49.543Z,23.5
2018-12-26T10:04:49.601Z,22.3
2018-12-26T10:06:49.548Z,22.3
2018-12-26T10:08:49.545Z,22.1
2018-12-26T10:10:49.604Z,22.1
2018-12-26T10:12:49.630Z,22.9
2018-12-26T10:14:49.645Z,20.7
2018-12-26T10:16:49.914Z,20.7
2018-12-26T10:18:49.999Z,21.5
2018-12-26T10:20:49.898Z,21.5
2018-12-26T10:22:49.885Z,20.8
2018-12-26T10:24:49.810Z,21.0
2018-12-26T10:26:50.081Z,20.4
2018-12-26T10:28:50.045Z,20.4
2018-12-26T10:30:50.004Z,20.6
2018-12-26T10:32:49.988Z,19.8
2018-12-26T10:34:50.185Z,18.7
2018-12-26T10:36:49.449Z,18.7
2018-12-26T10:38:49.475Z,19.1
2018-12-26T10:40:49.441Z,18.8
2018-12-26T10:42:50.421Z,17.9
2018-12-26T10:44:50.404Z,17.9
2018-12-26T10:46:49.620Z,17.7
2018-12-26T10:48:49.753Z,17.7
2018-12-26T10:50:49.949Z,18.2
2018-12-26T10:52:50.121Z,17.7
2018-12-26T10:54:50.276Z,18.2
2018-12-26T10:56:49.705Z,17.8
2018-12-26T10:58:49.856Z,17.8
2018-12-26T11:00:49.839Z,18.3
2018-12-26T11:02:49.787Z,17.6
2018-12-26T11:04:50.021Z,17.6
2018-12-26T11:06:50.163Z,19.0
2018-12-26T11:08:50.127Z,19.0
2018-12-26T11:10:50.073Z,18.4
2018-12-26T11:12:49.951Z,18.2
2018-12-26T11:14:49.939Z,18.2
2018-12-26T11:16:51.790Z,17.4
2018-12-26T11:18:49.864Z,17.4
2018-12-26T11:20:50.028Z,17.0
2018-12-26T11:22:50.222Z,17.0
2018-12-26T11:24:49.478Z,16.8
2018-12-26T11:26:49.793Z,16.8
2018-12-26T11:28:49.875Z,16.7
2018-12-26T11:30:50.034Z,15.8
2018-12-26T11:32:50.183Z,15.8
2018-12-26T11:34:49.955Z,16.4
2018-12-26T11:36:50.310Z,16.4
2018-12-26T11:38:50.415Z,12.9
2018-12-26T11:40:49.560Z,13.5
2018-12-26T11:42:49.688Z,12.2
2018-12-26T11:44:49.796Z,11.1
2018-12-26T11:46:50.175Z,11.1
2018-12-26T11:48:50.294Z,9.8
2018-12-26T11:50:49.524Z,10.2
2018-12-26T11:52:49.686Z,9.2
2018-12-26T11:54:49.947Z,9.7
2018-12-26T11:56:50.275Z,9.7
2018-12-26T11:58:50.396Z,10.0
2018-12-26T12:00:49.569Z,10.5
2018-12-26T12:02:49.814Z,11.0
2018-12-26T12:04:50.295Z,11.0
2018-12-26T12:06:49.629Z,12.1
2018-12-26T12:08:49.708Z,11.5
2018-12-26T12:10:50.197Z,11.5
2018-12-26T12:12:49.630Z,11.7
2018-12-26T12:14:49.752Z,11.0
2018-12-26T12:16:50.115Z,10.9
2018-12-26T12:18:50.183Z,11.1
2018-12-26T12:20:50.372Z,11.4
2018-12-26T12:22:49.457Z,11.4
2018-12-26T12:24:49.599Z,11.2
2018-12-26T12:26:49.855Z,10.8
2018-12-26T12:28:49.971Z,11.1
2018-12-26T12:30:50.101Z,11.1
2018-12-26T12:32:50.187Z,11.5
2018-12-26T12:34:49.651Z,11.5
2018-12-26T12:36:49.984Z,11.9
2018-12-26T12:38:50.188Z,10.2
2018-12-26T12:40:50.242Z,10.2
2018-12-26T12:42:49.534Z,9.8
2018-12-26T12:44:49.707Z,9.8
2018-12-26T12:46:49.910Z,10.4
2018-12-26T12:48:49.856Z,10.5
2018-12-26T12:50:49.797Z,8.5
2018-12-26T12:52:49.721Z,8.5
2018-12-26T12:54:49.598Z,8.9
2018-12-26T12:56:49.908Z,9.9
2018-12-26T12:58:50.029Z,10.5
2018-12-26T13:00:50.291Z,7.0
2018-12-26T13:02:49.601Z,7.0
2018-12-26T13:04:50.100Z,7.5
2018-12-26T13:06:49.434Z,7.5
2018-12-26T13:08:49.593Z,9.3
2018-12-26T13:10:49.789Z,9.3
2018-12-26T13:12:49.977Z,10.1
2018-12-26T13:14:50.095Z,8.2
2018-12-26T13:16:50.305Z,6.8
2018-12-26T13:18:49.547Z,7.0
2018-12-26T13:20:49.679Z,7.0
2018-12-26T13:22:49.837Z,7.0
2018-12-26T13:24:50.056Z,6.8
2018-12-26T13:26:50.304Z,7.1
2018-12-26T13:28:49.479Z,6.9
2018-12-26T13:30:49.579Z,6.9
2018-12-26T13:32:49.740Z,6.7
2018-12-26T13:34:50.178Z,7.2
2018-12-26T13:36:49.561Z,7.1
2018-12-26T13:38:49.562Z,7.1
2018-12-26T13:40:49.538Z,8.1
2018-12-26T13:42:49.558Z,6.6
2018-12-26T13:44:49.537Z,8.8
2018-12-26T13:46:49.973Z,9.0
2018-12-26T13:48:50.085Z,9.0
2018-12-26T13:50:50.137Z,8.4
2018-12-26T13:52:50.183Z,9.1
2018-12-26T13:54:50.183Z,8.4
2018-12-26T13:56:49.428Z,9.3
2018-12-26T13:58:50.422Z,9.3
2018-12-26T14:00:49.611Z,9.2
2018-12-26T14:02:49.550Z,10.3
2018-12-26T14:04:49.898Z,9.8
2018-12-26T14:06:50.100Z,9.8
2018-12-26T14:08:50.170Z,9.8
2018-12-26T14:10:50.140Z,10.1
2018-12-26T14:12:50.140Z,10.1
2018-12-26T14:14:50.069Z,9.6
2018-12-26T14:16:50.347Z,9.6
2018-12-26T14:18:49.485Z,10.7
2018-12-26T14:20:50.428Z,10.7
2018-12-26T14:22:49.563Z,11.1
2018-12-26T14:24:49.458Z,11.6
2018-12-26T14:26:49.702Z,12.1
2018-12-26T14:28:49.750Z,12.1
2018-12-26T14:30:49.729Z,12.1
2018-12-26T14:32:49.662Z,12.4
2018-12-26T14:34:49.949Z,12.6
2018-12-26T14:36:50.103Z,11.9
2018-12-26T14:38:50.116Z,11.9
2018-12-26T14:40:50.058Z,12.6
2018-12-26T14:42:49.985Z,12.9
2018-12-26T14:44:49.972Z,12.4
2018-12-26T14:46:50.104Z,12.4
2018-12-26T14:48:50.050Z,10.9
2018-12-26T14:50:50.032Z,11.0
2018-12-26T14:52:50.049Z,10.2
2018-12-26T14:54:50.043Z,8.4
2018-12-26T14:56:50.200Z,8.4
2018-12-26T14:58:50.180Z,8.9
2018-12-26T15:00:50.149Z,9.3
2018-12-26T15:02:50.181Z,10.0
2018-12-26T15:04:49.574Z,10.0
2018-12-26T15:06:49.714Z,10.7
2018-12-26T15:08:49.741Z,10.6
2018-12-26T15:10:49.719Z,6.5
2018-12-26T15:12:49.647Z,7.0
2018-12-26T15:14:49.629Z,7.0
2018-12-26T15:16:49.825Z,8.5
2018-12-26T15:18:49.829Z,8.5
2018-12-26T15:20:50.024Z,8.3
2018-12-26T15:22:50.143Z,9.8
2018-12-26T15:24:50.037Z,9.5
2018-12-26T15:26:50.259Z,9.5
2018-12-26T15:28:50.188Z,10.8
2018-12-26T15:30:50.255Z,11.0
2018-12-26T15:32:50.231Z,10.8
2018-12-26T15:34:49.500Z,11.5
2018-12-26T15:36:49.694Z,11.5
2018-12-26T15:38:49.647Z,12.8
2018-12-26T15:40:49.603Z,13.0
2018-12-26T15:42:49.612Z,13.5
2018-12-26T15:44:49.592Z,13.5
2018-12-26T15:46:49.728Z,13.5
2018-12-26T15:48:49.703Z,14.3
2018-12-26T15:50:49.641Z,14.4
2018-12-26T15:52:49.733Z,13.9
2018-12-26T15:54:49.674Z,13.9
2018-12-26T15:56:49.848Z,14.3
2018-12-26T15:58:49.818Z,13.4
2018-12-26T16:00:49.915Z,13.4
2018-12-26T16:02:49.886Z,13.9
2018-12-26T16:04:50.227Z,13.9
2018-12-26T16:06:50.347Z,13.8
2018-12-26T16:08:50.379Z,14.6
2018-12-26T16:10:50.389Z,15.3
2018-12-26T16:12:50.411Z,15.3
2018-12-26T16:14:50.418Z,13.3
2018-12-26T16:16:49.576Z,14.5
2018-12-26T16:18:49.601Z,14.2
2018-12-26T16:20:49.649Z,14.7
2018-12-26T16:22:49.597Z,14.7
2018-12-26T16:24:49.613Z,16.2
2018-12-26T16:26:49.887Z,16.3
2018-12-26T16:28:49.856Z,15.8
2018-12-26T16:30:49.862Z,16.3
2018-12-26T16:32:49.874Z,16.3
2018-12-26T16:34:50.285Z,17.6
2018-12-26T16:36:49.476Z,17.7
2018-12-26T16:38:49.458Z,17.6
2018-12-26T16:40:50.402Z,17.6
2018-12-26T16:42:49.433Z,17.5
2018-12-26T16:44:50.387Z,17.5
2018-12-26T16:46:49.574Z,18.9
2018-12-26T16:48:49.639Z,18.9
2018-12-26T16:50:49.645Z,19.5
2018-12-26T16:52:49.708Z,21.1
2018-12-26T16:54:49.644Z,21.1
2018-12-26T16:56:49.805Z,20.6
2018-12-26T16:58:49.834Z,18.9
2018-12-26T17:00:54.930Z,18.9
2018-12-26T17:02:50.330Z,18.9
2018-12-26T17:04:49.714Z,18.8
2018-12-26T17:06:49.939Z,20.3
2018-12-26T17:08:49.931Z,23.4
2018-12-26T17:10:49.923Z,24.1
2018-12-26T17:12:49.933Z,24.1
2018-12-26T17:14:49.898Z,25.8
2018-12-26T17:16:50.039Z,27.0
2018-12-26T17:18:49.997Z,28.9
2018-12-26T17:20:50.003Z,28.9
2018-12-26T17:22:49.992Z,29.8
2018-12-26T17:24:49.965Z,28.8
2018-12-26T17:26:50.072Z,28.8
2018-12-26T17:28:50.024Z,28.8
2018-12-26T17:30:50.018Z,29.0
2018-12-26T17:32:50.097Z,29.0
2018-12-26T17:34:50.309Z,29.1
2018-12-26T17:36:49.598Z,29.1
2018-12-26T17:38:49.700Z,29.1
2018-12-26T17:40:49.703Z,29.3
2018-12-26T17:42:49.656Z,29.3
2018-12-26T17:44:49.721Z,26.2
2018-12-26T17:46:49.761Z,24.1
2018-12-26T17:48:49.691Z,24.1
2018-12-26T17:50:49.661Z,24.1
2018-12-26T17:52:49.655Z,24.4
2018-12-26T17:54:49.669Z,24.1
2018-12-26T17:56:49.772Z,22.9
2018-12-26T17:58:49.813Z,22.9
2018-12-26T18:00:49.817Z,24.3
2018-12-26T18:02:49.836Z,24.2
2018-12-26T18:04:50.113Z,24.0
2018-12-26T18:06:50.326Z,24.0
2018-12-26T18:08:50.318Z,24.8
2018-12-26T18:10:49.452Z,24.8
2018-12-26T18:12:49.642Z,26.3
2018-12-26T18:14:49.589Z,26.0
2018-12-26T18:16:49.905Z,25.7
2018-12-26T18:18:49.924Z,24.7
2018-12-26T18:20:49.892Z,24.7
2018-12-26T18:22:49.868Z,25.2
2018-12-26T18:24:50.072Z,26.7
2018-12-26T18:26:50.300Z,24.6
2018-12-26T18:28:50.227Z,24.6
2018-12-26T18:30:50.333Z,25.2
2018-12-26T18:32:50.336Z,25.2
2018-12-26T18:34:49.612Z,27.6
2018-12-26T18:36:49.935Z,27.9
2018-12-26T18:38:49.930Z,27.9
2018-12-26T18:40:49.971Z,28.9
2018-12-26T18:42:50.083Z,28.3
2018-12-26T18:44:50.144Z,28.1
2018-12-26T18:46:50.408Z,29.4
2018-12-26T18:48:50.377Z,29.4
2018-12-26T18:50:50.410Z,30.5
2018-12-26T18:52:50.357Z,31.5
2018-12-26T18:54:50.381Z,36.6
2018-12-26T18:56:49.541Z,33.7
2018-12-26T18:58:49.565Z,33.7
2018-12-26T19:00:49.687Z,34.4
2018-12-26T19:02:49.721Z,34.8
2018-12-26T19:04:49.973Z,35.9
2018-12-26T19:06:50.109Z,35.9
2018-12-26T19:08:50.160Z,37.7
2018-12-26T19:10:50.103Z,37.5
2018-12-26T19:12:50.174Z,38.7
2018-12-26T19:14:50.126Z,37.8
2018-12-26T19:16:50.247Z,37.8
2018-12-26T19:18:50.273Z,38.0
2018-12-26T19:20:50.253Z,40.4
2018-12-26T19:22:50.386Z,38.1
2018-12-26T19:24:50.366Z,39.3
2018-12-26T19:26:49.559Z,39.3
2018-12-26T19:28:49.567Z,41.8
2018-12-26T19:30:49.637Z,39.4
2018-12-26T19:32:49.655Z,41.8
2018-12-26T19:34:49.965Z,41.8
2018-12-26T19:36:50.021Z,39.5
2018-12-26T19:38:50.032Z,42.8
2018-12-26T19:40:49.998Z,38.2
2018-12-26T19:42:50.013Z,38.2
2018-12-26T19:44:49.936Z,41.5
2018-12-26T19:46:50.199Z,41.5
2018-12-26T19:48:50.268Z,38.7
2018-12-26T19:50:50.291Z,37.2
2018-12-26T19:52:49.693Z,37.2
2018-12-26T19:54:49.684Z,38.8
2018-12-26T19:56:49.856Z,37.8
2018-12-26T19:58:49.824Z,35.9
2018-12-26T20:00:49.916Z,36.2
2018-12-26T20:02:49.935Z,36.4
2018-12-26T20:04:50.193Z,36.4
2018-12-26T20:06:50.401Z,38.2
2018-12-26T20:08:49.441Z,34.9
2018-12-26T20:10:49.438Z,36.2
2018-12-26T20:12:49.457Z,36.2
2018-12-26T20:14:49.561Z,36.7
2018-12-26T20:16:49.718Z,35.9
2018-12-26T20:18:49.689Z,34.7
2018-12-26T20:20:49.722Z,32.9
2018-12-26T20:22:49.702Z,35.1
2018-12-26T20:24:49.707Z,35.1
2018-12-26T20:26:49.904Z,34.3
2018-12-26T20:28:49.925Z,36.1
2018-12-26T20:30:49.871Z,36.1
2018-12-26T20:32:49.924Z,34.6
2018-12-26T20:34:50.225Z,34.0
2018-12-26T20:36:49.512Z,36.4
2018-12-26T20:38:49.465Z,32.9
2018-12-26T20:40:49.451Z,35.5
2018-12-26T20:42:49.495Z,35.5
2018-12-26T20:44:49.563Z,32.5
2018-12-26T20:46:49.855Z,33.1
2018-12-26T20:48:49.782Z,33.1
2018-12-26T20:50:49.775Z,33.1
2018-12-26T20:52:49.817Z,33.1
2018-12-26T20:54:49.830Z,36.3
2018-12-26T20:56:49.980Z,35.8
2018-12-26T20:58:49.990Z,35.5
2018-12-26T21:00:50.004Z,33.2
2018-12-26T21:02:50.048Z,33.2
2018-12-26T21:04:49.563Z,32.4
2018-12-26T21:06:49.785Z,33.4
2018-12-26T21:08:49.773Z,33.4
2018-12-26T21:10:49.681Z,32.8
2018-12-26T21:12:49.748Z,33.7
2018-12-26T21:14:49.775Z,35.7
2018-12-26T21:16:54.865Z,36.5
2018-12-26T21:18:50.393Z,33.4
2018-12-26T21:20:49.593Z,33.4
2018-12-26T21:22:49.745Z,33.0
2018-12-26T21:24:49.701Z,34.0
2018-12-26T21:26:49.821Z,34.0
2018-12-26T21:28:50.144Z,35.0
2018-12-26T21:30:50.207Z,32.7
2018-12-26T21:32:50.388Z,32.7
2018-12-26T21:34:49.853Z,36.0
2018-12-26T21:36:49.993Z,37.0
2018-12-26T21:38:49.973Z,37.0
2018-12-26T21:40:50.009Z,38.1
2018-12-26T21:42:50.025Z,38.1
2018-12-26T21:44:50.013Z,37.9
2018-12-26T21:46:50.256Z,40.0
2018-12-26T21:48:50.265Z,40.0
2018-12-26T21:50:50.376Z,38.3
2018-12-26T21:52:49.460Z,38.4
2018-12-26T21:54:49.494Z,38.5
2018-12-26T21:56:49.728Z,38.2
2018-12-26T21:58:49.683Z,38.2
2018-12-26T22:00:49.691Z,39.4
2018-12-26T22:02:49.737Z,36.1
2018-12-26T22:04:49.959Z,36.0
2018-12-26T22:06:50.218Z,36.0
2018-12-26T22:08:50.167Z,34.2
2018-12-26T22:10:50.211Z,34.2
2018-12-26T22:12:50.220Z,34.8
2018-12-26T22:14:50.207Z,37.4
2018-12-26T22:16:50.357Z,34.0
2018-12-26T22:18:50.321Z,34.0
2018-12-26T22:20:50.342Z,33.0
2018-12-26T22:22:50.338Z,32.3
2018-12-26T22:24:50.287Z,34.2
2018-12-26T22:26:49.557Z,34.2
2018-12-26T22:28:49.558Z,34.1
2018-12-26T22:30:49.619Z,34.1
2018-12-26T22:32:49.607Z,33.0
2018-12-26T22:34:50.032Z,36.2
2018-12-26T22:36:50.161Z,36.2
2018-12-26T22:38:50.175Z,35.4
2018-12-26T22:40:50.155Z,37.4
2018-12-26T22:42:50.194Z,37.7
2018-12-26T22:44:50.190Z,37.3
2018-12-26T22:46:49.448Z,37.3
2018-12-26T22:48:49.441Z,36.2
2018-12-26T22:50:50.421Z,34.0
2018-12-26T22:52:49.535Z,33.5
2018-12-26T22:54:49.498Z,33.7
2018-12-26T22:56:49.728Z,33.7
2018-12-26T22:58:49.740Z,33.3
2018-12-26T23:00:49.699Z,36.0
2018-12-26T23:02:49.689Z,35.4
2018-12-26T23:04:50.001Z,35.4
2018-12-26T23:06:50.252Z,33.1
2018-12-26T23:08:50.174Z,33.1
2018-12-26T23:10:50.187Z,34.4
2018-12-26T23:12:50.313Z,38.3
2018-12-26T23:14:50.274Z,38.3
2018-12-26T23:16:49.505Z,34.9
2018-12-26T23:18:49.502Z,36.3
2018-12-26T23:20:49.586Z,35.1
2018-12-26T23:22:49.602Z,35.1
2018-12-26T23:24:49.566Z,36.7
2018-12-26T23:26:49.938Z,36.7
2018-12-26T23:28:49.968Z,33.8
2018-12-26T23:30:49.965Z,35.3
2018-12-26T23:32:49.950Z,34.8
2018-12-26T23:34:50.400Z,33.2
2018-12-26T23:36:49.682Z,33.2
2018-12-26T23:38:49.630Z,37.2
2018-12-26T23:40:49.608Z,35.1
2018-12-26T23:42:49.755Z,35.1
2018-12-26T23:44:49.729Z,35.2
2018-12-26T23:46:49.990Z,36.3
2018-12-26T23:48:50.033Z,32.9
2018-12-26T23:50:50.033Z,34.2
2018-12-26T23:52:50.081Z,33.5
2018-12-26T23:54:50.041Z,33.5
2018-12-26T23:56:50.226Z,36.1
2018-12-26T23:58:50.196Z,36.5
